createdAt,value
2019-03-27T00:01:18.658Z,10.85
2019-03-27T00:03:47.880Z,11.20
2019-03-27T00:06:16.359Z,10.80
2019-03-27T00:08:44.823Z,10.28
2019-03-27T00:11:16.046Z,10.18
2019-03-27T00:13:43.459Z,10.05
2019-03-27T00:16:12.011Z,10.08
2019-03-27T00:18:40.520Z,9.28
2019-03-27T00:21:08.990Z,10.32
2019-03-27T00:23:37.423Z,9.48
2019-03-27T00:26:05.940Z,9.55
2019-03-27T00:28:34.408Z,9.55
2019-03-27T00:31:02.859Z,9.93
2019-03-27T00:33:31.367Z,10.20
2019-03-27T00:35:59.831Z,10.35
2019-03-27T00:38:28.275Z,10.25
2019-03-27T00:40:56.720Z,10.03
2019-03-27T00:43:25.340Z,10.28
2019-03-27T00:45:53.801Z,10.93
2019-03-27T00:48:22.244Z,10.90
2019-03-27T00:50:50.706Z,10.25
2019-03-27T00:53:19.148Z,10.32
2019-03-27T00:55:47.592Z,10.63
2019-03-27T00:58:16.076Z,10.18
2019-03-27T01:01:05.369Z,9.88
2019-03-27T01:03:39.891Z,10.88
2019-03-27T01:06:08.408Z,10.32
2019-03-27T01:08:36.853Z,10.48
2019-03-27T01:11:06.060Z,11.35
2019-03-27T01:13:34.507Z,10.50
2019-03-27T01:16:03.020Z,10.82
2019-03-27T01:18:31.479Z,9.58
2019-03-27T01:20:59.919Z,9.53
2019-03-27T01:23:28.365Z,10.00
2019-03-27T01:25:56.816Z,9.78
2019-03-27T01:28:25.261Z,9.03
2019-03-27T01:30:53.715Z,9.48
2019-03-27T01:33:22.180Z,9.00
2019-03-27T01:35:50.636Z,8.75
2019-03-27T01:38:19.078Z,8.65
2019-03-27T01:40:47.551Z,8.70
2019-03-27T01:43:15.992Z,8.75
2019-03-27T01:45:52.879Z,8.18
2019-03-27T01:48:14.623Z,7.87
2019-03-27T01:50:43.076Z,7.42
2019-03-27T01:53:11.508Z,7.92
2019-03-27T01:55:39.987Z,7.05
2019-03-27T01:58:08.446Z,7.25
2019-03-27T02:00:36.953Z,6.83
2019-03-27T02:03:05.416Z,7.37
2019-03-27T02:05:33.859Z,6.87
2019-03-27T02:08:02.309Z,7.25
2019-03-27T02:10:30.849Z,7.03
2019-03-27T02:12:59.299Z,7.20
2019-03-27T02:15:27.740Z,6.60
2019-03-27T02:17:56.291Z,7.25
2019-03-27T02:20:24.744Z,6.62
2019-03-27T02:22:53.280Z,6.53
2019-03-27T02:25:21.744Z,6.67
2019-03-27T02:27:50.206Z,6.67
2019-03-27T02:30:18.716Z,6.58
2019-03-27T02:32:47.369Z,6.90
2019-03-27T02:35:15.804Z,6.87
2019-03-27T02:37:44.254Z,6.87
2019-03-27T02:40:12.867Z,6.58
2019-03-27T02:42:41.314Z,6.55
2019-03-27T02:45:09.989Z,6.65
2019-03-27T02:47:38.465Z,6.30
2019-03-27T02:50:07.749Z,6.42
2019-03-27T02:52:36.197Z,6.55
2019-03-27T02:55:25.817Z,6.67
2019-03-27T02:57:54.328Z,6.70
2019-03-27T03:00:23.048Z,6.97
2019-03-27T03:02:51.503Z,6.50
2019-03-27T03:05:20.024Z,5.78
2019-03-27T03:07:48.524Z,5.58
2019-03-27T03:10:18.865Z,6.00
2019-03-27T03:13:06.670Z,5.60
2019-03-27T03:15:35.200Z,5.65
2019-03-27T03:18:03.721Z,5.95
2019-03-27T03:20:32.159Z,6.12
2019-03-27T03:23:00.625Z,6.12
2019-03-27T03:25:29.066Z,5.62
2019-03-27T03:27:57.502Z,6.10
2019-03-27T03:30:26.053Z,5.67
2019-03-27T03:32:54.499Z,6.33
2019-03-27T03:35:23.018Z,5.92
2019-03-27T03:37:51.484Z,5.67
2019-03-27T03:40:20.047Z,5.20
2019-03-27T03:42:48.496Z,4.65
2019-03-27T03:45:37.813Z,5.45
2019-03-27T03:48:06.967Z,5.87
2019-03-27T03:50:42.801Z,5.70
2019-03-27T03:53:13.279Z,5.78
2019-03-27T03:55:42.827Z,6.00
2019-03-27T03:58:13.534Z,5.25
2019-03-27T04:00:42.360Z,4.97
2019-03-27T04:03:11.003Z,4.87
2019-03-27T04:05:39.476Z,4.92
2019-03-27T04:08:07.974Z,5.00
2019-03-27T04:10:36.560Z,4.92
2019-03-27T04:13:05.089Z,4.75
2019-03-27T04:15:33.525Z,4.73
2019-03-27T04:18:01.966Z,4.58
2019-03-27T04:20:30.492Z,4.12
2019-03-27T04:22:58.943Z,4.08
2019-03-27T04:25:27.386Z,5.00
2019-03-27T04:27:55.963Z,5.05
2019-03-27T04:30:24.402Z,4.55
2019-03-27T04:33:12.229Z,4.40
2019-03-27T04:35:40.664Z,4.70
2019-03-27T04:38:09.100Z,4.10
2019-03-27T04:40:37.569Z,4.33
2019-03-27T04:43:06.009Z,4.40
2019-03-27T04:45:34.457Z,4.42
2019-03-27T04:48:02.988Z,4.37
2019-03-27T04:50:31.418Z,5.35
2019-03-27T04:52:59.865Z,4.58
2019-03-27T04:55:28.317Z,4.87
2019-03-27T04:57:56.756Z,4.80
2019-03-27T05:00:25.197Z,4.78
2019-03-27T05:02:53.668Z,5.65
2019-03-27T05:05:22.108Z,4.85
2019-03-27T05:07:50.548Z,4.97
2019-03-27T05:10:19.164Z,5.55
2019-03-27T05:12:47.712Z,5.60
2019-03-27T05:15:16.139Z,5.12
2019-03-27T05:17:46.339Z,5.28
2019-03-27T05:20:14.790Z,5.72
2019-03-27T05:22:43.220Z,4.92
2019-03-27T05:25:11.767Z,6.15
2019-03-27T05:27:40.210Z,5.47
2019-03-27T05:30:09.190Z,5.60
2019-03-27T05:32:37.664Z,5.80
2019-03-27T05:35:07.828Z,6.08
2019-03-27T05:37:36.275Z,6.67
2019-03-27T05:40:07.287Z,5.83
2019-03-27T05:45:03.460Z,6.30
2019-03-27T05:47:31.988Z,7.22
2019-03-27T05:50:00.507Z,6.37
2019-03-27T05:52:28.963Z,6.50
2019-03-27T05:55:00.164Z,6.80
2019-03-27T05:57:28.936Z,7.05
2019-03-27T05:59:57.386Z,7.60
2019-03-27T06:02:25.939Z,7.75
2019-03-27T06:04:54.457Z,6.37
2019-03-27T06:07:22.903Z,7.17
2019-03-27T06:09:51.382Z,6.70
2019-03-27T06:12:19.896Z,7.20
2019-03-27T06:14:48.395Z,7.33
2019-03-27T06:17:16.889Z,6.17
2019-03-27T06:19:45.341Z,6.72
2019-03-27T06:22:15.085Z,6.55
2019-03-27T06:25:03.668Z,7.23
2019-03-27T06:27:32.177Z,6.75
2019-03-27T06:30:00.614Z,7.53
2019-03-27T06:32:29.083Z,6.80
2019-03-27T06:34:57.525Z,7.05
2019-03-27T06:37:25.967Z,7.12
2019-03-27T06:39:54.428Z,7.40
2019-03-27T06:42:23.045Z,7.03
2019-03-27T06:44:51.489Z,7.47
2019-03-27T06:47:20.008Z,7.62
2019-03-27T06:49:48.452Z,7.28
2019-03-27T06:52:16.954Z,7.78
2019-03-27T06:54:45.460Z,7.55
2019-03-27T06:57:13.900Z,7.72
2019-03-27T06:59:42.352Z,7.05
2019-03-27T07:02:11.029Z,7.90
2019-03-27T07:04:39.532Z,7.25
2019-03-27T07:07:07.977Z,8.05
2019-03-27T07:09:36.443Z,7.78
2019-03-27T07:12:04.958Z,7.80
2019-03-27T07:14:33.401Z,8.18
2019-03-27T07:17:01.869Z,7.62
2019-03-27T07:19:30.376Z,7.50
2019-03-27T07:21:58.820Z,8.05
2019-03-27T07:24:27.305Z,7.47
2019-03-27T07:26:55.835Z,7.97
2019-03-27T07:29:24.276Z,7.58
2019-03-27T07:31:52.749Z,8.08
2019-03-27T07:34:21.262Z,8.78
2019-03-27T07:36:49.716Z,8.03
2019-03-27T07:39:18.250Z,7.70
2019-03-27T07:41:46.723Z,7.83
2019-03-27T07:44:15.248Z,7.65
2019-03-27T07:46:43.846Z,8.20
2019-03-27T07:49:12.284Z,8.55
2019-03-27T07:51:40.731Z,8.08
2019-03-27T07:54:09.255Z,8.28
2019-03-27T07:56:57.092Z,8.85
2019-03-27T07:59:25.599Z,8.35
2019-03-27T08:01:54.052Z,8.05
2019-03-27T08:04:22.503Z,8.53
2019-03-27T08:06:50.966Z,8.38
2019-03-27T08:09:19.483Z,8.85
2019-03-27T08:11:47.939Z,9.03
2019-03-27T08:14:16.494Z,9.25
2019-03-27T08:16:45.055Z,8.00
2019-03-27T08:19:13.495Z,8.78
2019-03-27T08:21:41.985Z,8.60
2019-03-27T08:24:10.431Z,8.55
2019-03-27T08:26:38.863Z,9.58
2019-03-27T08:29:26.683Z,8.80
2019-03-27T08:31:55.192Z,8.90
2019-03-27T08:34:31.870Z,9.78
2019-03-27T08:37:00.303Z,9.70
2019-03-27T08:39:28.755Z,9.63
2019-03-27T08:41:57.214Z,10.18
2019-03-27T08:44:25.665Z,9.65
2019-03-27T08:46:54.112Z,9.78
2019-03-27T08:49:41.912Z,9.65
2019-03-27T08:52:10.392Z,9.00
2019-03-27T08:54:38.895Z,9.73
2019-03-27T08:57:07.369Z,10.08
2019-03-27T08:59:35.890Z,9.08
2019-03-27T09:02:04.396Z,9.63
2019-03-27T09:04:32.879Z,9.50
2019-03-27T09:07:01.339Z,9.80
2019-03-27T09:12:58.975Z,8.85
2019-03-27T09:15:27.423Z,8.83
2019-03-27T09:17:55.880Z,9.00
2019-03-27T09:20:24.355Z,9.13
2019-03-27T09:22:52.835Z,9.93
2019-03-27T09:25:21.276Z,9.10
2019-03-27T09:27:49.750Z,9.60
2019-03-27T09:30:19.901Z,9.48
2019-03-27T09:32:48.349Z,10.00
2019-03-27T09:35:16.848Z,9.50
2019-03-27T09:37:45.388Z,9.98
2019-03-27T09:40:14.908Z,9.30
2019-03-27T09:42:43.387Z,9.88
2019-03-27T09:45:12.785Z,9.78
2019-03-27T09:47:41.303Z,9.68
2019-03-27T09:50:10.309Z,9.23
2019-03-27T09:52:38.823Z,9.88
2019-03-27T09:55:07.434Z,8.58
2019-03-27T09:57:38.163Z,9.08
2019-03-27T10:00:07.965Z,7.78
2019-03-27T10:02:36.420Z,7.60
2019-03-27T10:05:07.696Z,7.35
2019-03-27T10:07:36.151Z,8.15
2019-03-27T10:10:06.051Z,7.75
2019-03-27T10:12:34.530Z,7.55
2019-03-27T10:15:03.430Z,7.78
2019-03-27T10:17:31.877Z,7.15
2019-03-27T10:20:03.813Z,6.62
2019-03-27T10:22:30.523Z,7.12
2019-03-27T10:24:59.031Z,7.75
2019-03-27T10:27:27.515Z,7.87
2019-03-27T10:29:55.999Z,7.65
2019-03-27T10:32:24.450Z,7.85
2019-03-27T10:34:52.919Z,9.28
2019-03-27T10:37:21.366Z,8.65
2019-03-27T10:39:49.809Z,8.38
2019-03-27T10:42:18.279Z,8.60
2019-03-27T10:44:46.740Z,8.30
2019-03-27T10:47:15.191Z,7.45
2019-03-27T10:49:43.652Z,6.65
2019-03-27T10:52:12.368Z,6.75
2019-03-27T10:54:40.808Z,7.62
2019-03-27T10:57:09.270Z,7.78
2019-03-27T10:59:37.715Z,7.85
2019-03-27T11:02:06.251Z,7.75
2019-03-27T11:04:34.725Z,8.30
2019-03-27T11:07:03.346Z,6.28
2019-03-27T11:09:31.778Z,5.78
2019-03-27T11:12:00.448Z,5.75
2019-03-27T11:14:37.669Z,6.15
2019-03-27T11:16:59.146Z,7.00
2019-03-27T11:19:27.612Z,6.53
2019-03-27T11:21:56.163Z,6.25
2019-03-27T11:24:24.692Z,6.80
2019-03-27T11:26:53.255Z,6.60
2019-03-27T11:29:21.694Z,6.60
2019-03-27T11:31:50.142Z,5.78
2019-03-27T11:34:18.620Z,6.05
2019-03-27T11:36:47.155Z,6.53
2019-03-27T11:39:15.676Z,6.97
2019-03-27T11:41:44.152Z,6.78
2019-03-27T11:44:12.876Z,5.85
2019-03-27T11:46:41.528Z,5.67
2019-03-27T11:49:10.108Z,6.72
2019-03-27T11:51:38.547Z,6.92
2019-03-27T11:54:06.998Z,6.55
2019-03-27T11:56:35.472Z,6.25
2019-03-27T11:59:04.008Z,7.10
2019-03-27T12:01:40.537Z,6.28
2019-03-27T12:04:02.664Z,4.75
2019-03-27T12:06:31.111Z,4.25
2019-03-27T12:08:59.560Z,3.22
2019-03-27T12:11:28.037Z,3.75
2019-03-27T12:13:56.497Z,3.72
2019-03-27T12:16:25.047Z,4.03
2019-03-27T12:18:53.517Z,4.37
2019-03-27T12:21:21.960Z,3.50
2019-03-27T12:23:50.403Z,3.80
2019-03-27T12:26:18.891Z,3.85
2019-03-27T12:28:47.411Z,3.20
2019-03-27T12:31:15.878Z,3.50
2019-03-27T12:33:44.340Z,2.90
2019-03-27T12:36:12.793Z,2.77
2019-03-27T12:38:41.237Z,2.58
2019-03-27T12:41:09.786Z,2.95
2019-03-27T12:43:38.227Z,3.20
2019-03-27T12:46:06.736Z,3.17
2019-03-27T12:48:35.210Z,2.85
2019-03-27T12:51:12.789Z,2.92
2019-03-27T12:53:33.844Z,3.08
2019-03-27T12:56:02.434Z,2.55
2019-03-27T12:58:30.951Z,2.98
2019-03-27T13:00:59.384Z,3.75
2019-03-27T13:03:27.873Z,3.98
2019-03-27T13:05:56.383Z,4.05
2019-03-27T13:08:24.999Z,4.22
2019-03-27T13:10:53.513Z,4.10
2019-03-27T13:13:22.227Z,4.60
2019-03-27T13:15:50.684Z,4.00
2019-03-27T13:18:19.158Z,3.83
2019-03-27T13:20:47.597Z,3.90
2019-03-27T13:23:16.031Z,3.65
2019-03-27T13:25:44.511Z,3.60
2019-03-27T13:28:12.956Z,3.95
2019-03-27T13:30:41.409Z,4.12
2019-03-27T13:33:09.891Z,4.12
2019-03-27T13:36:17.847Z,3.70
2019-03-27T13:38:46.376Z,3.72
2019-03-27T13:41:14.815Z,3.70
2019-03-27T13:43:43.342Z,3.75
2019-03-27T13:46:11.876Z,4.30
2019-03-27T13:48:40.325Z,3.95
2019-03-27T13:51:08.755Z,4.22
2019-03-27T13:53:37.312Z,3.80
2019-03-27T13:56:05.892Z,3.87
2019-03-27T13:58:34.331Z,3.55
2019-03-27T14:01:02.877Z,3.80
2019-03-27T14:03:31.313Z,3.33
2019-03-27T14:05:59.761Z,3.55
2019-03-27T14:08:28.290Z,3.58
2019-03-27T14:10:56.905Z,3.83
2019-03-27T14:13:25.416Z,3.85
2019-03-27T14:15:53.983Z,4.40
2019-03-27T14:18:22.423Z,4.28
2019-03-27T14:20:50.879Z,4.10
2019-03-27T14:23:19.354Z,4.50
2019-03-27T14:25:47.796Z,4.50
2019-03-27T14:28:16.248Z,6.87
2019-03-27T14:31:04.144Z,5.40
2019-03-27T14:33:32.932Z,4.95
2019-03-27T14:36:01.461Z,4.28
2019-03-27T14:38:29.995Z,5.20
2019-03-27T14:40:58.553Z,4.62
2019-03-27T14:43:27.364Z,5.15
2019-03-27T14:45:56.010Z,5.10
2019-03-27T14:48:24.529Z,5.83
2019-03-27T14:50:52.972Z,5.53
2019-03-27T14:53:40.773Z,5.00
2019-03-27T14:56:09.283Z,5.17
2019-03-27T14:58:37.741Z,5.15
2019-03-27T15:01:06.355Z,5.22
2019-03-27T15:03:34.871Z,5.15
2019-03-27T15:06:03.414Z,5.22
2019-03-27T15:08:32.057Z,4.75
2019-03-27T15:11:00.540Z,5.08
2019-03-27T15:13:29.042Z,4.87
2019-03-27T15:15:57.526Z,4.78
2019-03-27T15:18:25.968Z,5.12
2019-03-27T15:20:54.624Z,4.65
2019-03-27T15:23:23.183Z,4.70
2019-03-27T15:25:51.769Z,5.03
2019-03-27T15:28:20.308Z,5.25
2019-03-27T15:30:48.797Z,4.35
2019-03-27T15:33:17.243Z,4.45
2019-03-27T15:35:48.040Z,5.05
2019-03-27T15:38:16.553Z,4.67
2019-03-27T15:40:46.596Z,4.50
2019-03-27T15:43:15.260Z,4.50
2019-03-27T15:45:46.695Z,4.40
2019-03-27T15:48:18.161Z,4.80
2019-03-27T15:50:55.546Z,5.03
2019-03-27T15:53:18.408Z,4.78
2019-03-27T15:55:46.997Z,4.95
2019-03-27T15:58:15.503Z,4.53
2019-03-27T16:00:44.378Z,4.83
2019-03-27T16:03:12.836Z,5.42
2019-03-27T16:05:41.291Z,4.92
2019-03-27T16:08:10.067Z,5.00
2019-03-27T16:10:38.613Z,5.47
2019-03-27T16:13:07.143Z,4.53
2019-03-27T16:15:37.230Z,4.75
2019-03-27T16:18:09.316Z,5.03
2019-03-27T16:20:37.880Z,4.97
2019-03-27T16:23:06.625Z,5.33
2019-03-27T16:25:37.768Z,5.15
2019-03-27T16:28:08.590Z,4.87
2019-03-27T16:30:37.280Z,5.40
2019-03-27T16:33:11.658Z,5.53
2019-03-27T16:35:40.263Z,5.17
2019-03-27T16:38:08.744Z,5.25
2019-03-27T16:40:44.408Z,5.17
2019-03-27T16:43:13.019Z,5.25
2019-03-27T16:45:41.632Z,4.53
2019-03-27T16:48:10.360Z,4.40
2019-03-27T16:50:39.023Z,4.87
2019-03-27T16:53:07.619Z,4.37
2019-03-27T16:55:38.660Z,4.35
2019-03-27T16:58:07.184Z,3.92
2019-03-27T17:00:37.304Z,3.77
2019-03-27T17:03:05.819Z,3.80
2019-03-27T17:05:34.388Z,3.58
2019-03-27T17:08:03.248Z,3.92
2019-03-27T17:10:33.423Z,3.72
2019-03-27T17:13:02.048Z,4.20
2019-03-27T17:15:30.599Z,4.25
2019-03-27T17:17:59.142Z,4.10
2019-03-27T17:20:27.684Z,4.35
2019-03-27T17:22:56.246Z,4.55
2019-03-27T17:25:24.884Z,4.50
2019-03-27T17:27:55.718Z,4.40
2019-03-27T17:30:23.990Z,4.15
2019-03-27T17:32:52.515Z,4.05
2019-03-27T17:35:21.056Z,4.05
2019-03-27T17:37:51.221Z,3.90
2019-03-27T17:40:19.835Z,3.67
2019-03-27T17:42:48.390Z,4.05
2019-03-27T17:45:18.456Z,3.62
2019-03-27T17:47:48.531Z,3.70
2019-03-27T17:50:17.221Z,3.40
2019-03-27T17:52:46.750Z,3.90
2019-03-27T17:55:15.231Z,3.62
2019-03-27T17:57:43.703Z,3.50
2019-03-27T18:00:18.256Z,3.60
2019-03-27T18:02:49.060Z,3.60
2019-03-27T18:05:17.631Z,4.30
2019-03-27T18:07:46.195Z,4.15
2019-03-27T18:10:18.575Z,4.40
2019-03-27T18:12:47.162Z,4.62
2019-03-27T18:15:23.370Z,5.30
2019-03-27T18:17:49.563Z,5.20
2019-03-27T18:20:26.243Z,5.33
2019-03-27T18:23:15.722Z,5.70
2019-03-27T18:25:45.804Z,5.55
2019-03-27T18:28:33.837Z,5.93
2019-03-27T18:31:03.767Z,6.15
2019-03-27T18:33:34.062Z,6.37
2019-03-27T18:36:02.681Z,6.30
2019-03-27T18:38:31.185Z,7.08
2019-03-27T18:40:59.787Z,6.85
2019-03-27T18:43:28.449Z,6.50
2019-03-27T18:45:57.083Z,6.60
2019-03-27T18:48:25.649Z,6.25
2019-03-27T18:50:54.371Z,6.65
2019-03-27T18:53:22.822Z,6.55
2019-03-27T18:55:51.375Z,6.65
2019-03-27T18:58:19.922Z,6.40
2019-03-27T19:00:48.507Z,7.15
2019-03-27T19:03:19.291Z,6.30
2019-03-27T19:05:47.765Z,8.95
2019-03-27T19:08:16.315Z,8.13
2019-03-27T19:10:44.946Z,7.45
2019-03-27T19:13:13.753Z,7.53
2019-03-27T19:15:42.263Z,7.53
2019-03-27T19:18:10.726Z,7.40
2019-03-27T19:20:39.270Z,7.45
2019-03-27T19:23:07.904Z,7.05
2019-03-27T19:25:36.343Z,7.80
2019-03-27T19:28:04.917Z,8.33
2019-03-27T19:30:33.517Z,7.87
2019-03-27T19:33:02.200Z,7.58
2019-03-27T19:35:30.748Z,7.90
2019-03-27T19:37:59.193Z,8.95
2019-03-27T19:40:27.703Z,8.43
2019-03-27T19:42:57.157Z,9.98
2019-03-27T19:45:25.940Z,10.32
2019-03-27T19:47:54.484Z,10.90
2019-03-27T19:50:23.006Z,11.45
2019-03-27T19:52:51.490Z,11.33
2019-03-27T19:55:23.428Z,11.63
2019-03-27T19:57:52.012Z,11.83
2019-03-27T20:00:21.158Z,11.48
2019-03-27T20:02:49.611Z,11.15
2019-03-27T20:05:18.103Z,10.85
2019-03-27T20:07:46.708Z,11.78
2019-03-27T20:10:15.406Z,11.63
2019-03-27T20:12:44.060Z,13.28
2019-03-27T20:15:13.013Z,12.80
2019-03-27T20:17:41.661Z,11.33
2019-03-27T20:20:10.540Z,12.13
2019-03-27T20:22:39.154Z,12.25
2019-03-27T20:25:28.628Z,11.57
2019-03-27T20:27:57.098Z,11.55
2019-03-27T20:30:27.021Z,12.15
2019-03-27T20:32:55.730Z,11.37
2019-03-27T20:35:24.217Z,11.18
2019-03-27T20:37:52.765Z,11.35
2019-03-27T20:40:39.494Z,11.90
2019-03-27T20:43:08.621Z,11.97
2019-03-27T20:45:37.389Z,11.65
2019-03-27T20:48:06.180Z,11.97
2019-03-27T20:50:34.741Z,12.43
2019-03-27T20:53:03.434Z,12.90
2019-03-27T20:55:36.202Z,13.93
2019-03-27T20:58:07.072Z,13.50
2019-03-27T21:00:35.595Z,15.15
2019-03-27T21:03:07.369Z,14.85
2019-03-27T21:05:35.880Z,15.93
2019-03-27T21:08:04.510Z,15.72
2019-03-27T21:10:37.403Z,16.17
2019-03-27T21:13:05.935Z,16.23
2019-03-27T21:15:34.447Z,17.00
2019-03-27T21:18:03.061Z,17.35
2019-03-27T21:20:31.616Z,17.55
2019-03-27T21:23:00.056Z,17.95
2019-03-27T21:25:28.546Z,17.85
2019-03-27T21:27:56.983Z,17.20
2019-03-27T21:30:25.424Z,17.15
2019-03-27T21:32:53.900Z,17.00
2019-03-27T21:35:22.347Z,16.73
2019-03-27T21:37:50.786Z,16.65
2019-03-27T21:40:19.409Z,16.90
2019-03-27T21:42:47.852Z,16.90
2019-03-27T21:45:16.368Z,18.15
2019-03-27T21:47:44.824Z,16.70
2019-03-27T21:50:13.418Z,16.02
2019-03-27T21:52:41.869Z,15.53
2019-03-27T21:55:21.940Z,14.87
2019-03-27T21:57:40.660Z,14.85
2019-03-27T22:00:10.717Z,14.40
2019-03-27T22:02:39.191Z,14.35
2019-03-27T22:05:08.097Z,13.72
2019-03-27T22:07:36.616Z,13.93
2019-03-27T22:10:07.208Z,13.70
2019-03-27T22:12:38.349Z,12.80
2019-03-27T22:15:07.978Z,13.17
2019-03-27T22:17:36.542Z,14.00
2019-03-27T22:20:06.802Z,14.07
2019-03-27T22:22:35.296Z,14.10
2019-03-27T22:25:05.611Z,14.73
2019-03-27T22:27:34.078Z,16.42
2019-03-27T22:30:02.778Z,15.20
2019-03-27T22:32:31.323Z,16.82
2019-03-27T22:34:59.784Z,16.52
2019-03-27T22:37:28.232Z,16.77
2019-03-27T22:39:56.733Z,17.07
2019-03-27T22:42:25.280Z,16.80
2019-03-27T22:44:53.841Z,16.25
2019-03-27T22:47:22.396Z,16.27
2019-03-27T22:49:51.076Z,16.27
2019-03-27T22:52:19.913Z,16.85
2019-03-27T22:54:48.534Z,17.25
2019-03-27T22:57:17.022Z,17.05
2019-03-27T22:59:45.504Z,17.35
2019-03-27T23:02:14.221Z,19.20
2019-03-27T23:04:42.715Z,18.67
2019-03-27T23:07:11.159Z,18.42
2019-03-27T23:09:39.697Z,18.10
2019-03-27T23:12:08.165Z,18.50
2019-03-27T23:14:36.604Z,17.60
2019-03-27T23:17:05.212Z,17.95
2019-03-27T23:19:33.713Z,17.32
2019-03-27T23:22:02.155Z,17.85
2019-03-27T23:24:30.645Z,17.02
2019-03-27T23:26:59.089Z,18.00
2019-03-27T23:29:27.539Z,17.35
2019-03-27T23:31:56.802Z,17.15
2019-03-27T23:34:25.244Z,17.25
2019-03-27T23:36:53.692Z,17.30
2019-03-27T23:39:22.163Z,16.77
2019-03-27T23:41:50.600Z,17.35
2019-03-27T23:44:19.047Z,16.97
2019-03-27T23:46:47.519Z,18.25
2019-03-27T23:49:15.961Z,18.27
2019-03-27T23:51:44.403Z,16.87
2019-03-27T23:54:12.869Z,16.40
2019-03-27T23:56:41.319Z,16.93
2019-03-27T23:59:09.760Z,16.70
